Time;durP1;ratioP1;P1;durP2;ratioP2;P2;SDS_P1;SDS_P2;PMS_P1;PMS_P2;Temp;Humidity;BMP_temperature;BMP_pressure;BME280_temperature;BME280_humidity;BME280_pressure;Samples;Min_cycle;Max_cycle;Signal;HPM_P1;HPM_P2
2022/01/29 00:00:05;;;;;;;50.20;27.95;;;;;;;;;;5053774;28;20689;-66
2022/01/29 00:02:33;;;;;;;46.65;24.75;;;;;;;;;;5054232;28;20204;-66
2022/01/29 00:05:00;;;;;;;44.97;25.25;;;;;;;;;;5054209;28;20219;-66
2022/01/29 00:07:28;;;;;;;44.33;26.05;;;;;;;;;;5054155;28;20266;-66
2022/01/29 00:10:01;;;;;;;41.58;26.23;;;;;;;;;;5053884;28;20198;-66
2022/01/29 00:12:30;;;;;;;41.83;25.00;;;;;;;;;;5054040;28;20186;-66
2022/01/29 00:14:57;;;;;;;48.05;27.67;;;;;;;;;;5053558;28;20232;-67
2022/01/29 00:17:24;;;;;;;35.17;23.58;;;;;;;;;;5053527;28;20227;-66
2022/01/29 00:19:53;;;;;;;49.20;27.50;;;;;;;;;;5053765;28;20221;-66
2022/01/29 00:22:21;;;;;;;44.80;27.13;;;;;;;;;;5053797;28;20237;-66
2022/01/29 00:24:48;;;;;;;35.88;23.00;;;;;;;;;;5054024;28;20193;-65
2022/01/29 00:27:15;;;;;;;38.97;21.25;;;;;;;;;;5054037;28;20198;-66
2022/01/29 00:29:43;;;;;;;44.03;27.60;;;;;;;;;;5054056;28;20260;-66
2022/01/29 00:32:12;;;;;;;40.92;24.55;;;;;;;;;;5053339;28;20722;-66
2022/01/29 00:34:39;;;;;;;43.22;25.17;;;;;;;;;;5053533;28;20633;-65
2022/01/29 00:37:08;;;;;;;41.28;21.88;;;;;;;;;;5053510;28;20565;-66
2022/01/29 00:39:36;;;;;;;37.22;23.27;;;;;;;;;;5054241;28;20219;-67
2022/01/29 00:42:04;;;;;;;39.22;24.90;;;;;;;;;;5054043;28;20612;-66
2022/01/29 00:44:31;;;;;;;37.05;21.08;;;;;;;;;;5053406;28;20562;-66
2022/01/29 00:46:58;;;;;;;42.40;24.55;;;;;;;;;;5053229;28;20280;-66
2022/01/29 00:49:25;;;;;;;40.38;23.33;;;;;;;;;;5053543;28;20197;-66
2022/01/29 00:51:53;;;;;;;39.17;23.38;;;;;;;;;;5052980;28;20660;-66
2022/01/29 00:54:21;;;;;;;39.42;22.23;;;;;;;;;;5053287;28;20284;-66
2022/01/29 00:56:49;;;;;;;39.90;23.40;;;;;;;;;;5053134;28;20633;-65
2022/01/29 00:59:16;;;;;;;45.35;25.90;;;;;;;;;;5057057;28;20284;-67
2022/01/29 01:01:43;;;;;;;32.50;20.65;;;;;;;;;;5058042;28;20746;-65
2022/01/29 01:04:11;;;;;;;36.50;23.23;;;;;;;;;;5057471;28;20278;-65
2022/01/29 01:06:38;;;;;;;39.97;23.33;;;;;;;;;;5057331;28;20197;-66
2022/01/29 01:09:05;;;;;;;30.85;20.50;;;;;;;;;;5056966;28;20291;-66
2022/01/29 01:11:34;;;;;;;28.98;18.23;;;;;;;;;;5057223;28;20764;-65
2022/01/29 01:14:01;;;;;;;35.22;23.83;;;;;;;;;;5056982;28;20232;-66
2022/01/29 01:16:28;;;;;;;42.97;24.23;;;;;;;;;;5057143;28;20245;-66
2022/01/29 01:18:56;;;;;;;43.53;23.35;;;;;;;;;;5057769;28;20232;-66
2022/01/29 01:21:23;;;;;;;31.17;16.73;;;;;;;;;;5057370;28;20261;-66
2022/01/29 01:23:50;;;;;;;44.28;22.02;;;;;;;;;;5057445;28;20204;-66
2022/01/29 01:26:18;;;;;;;37.78;23.17;;;;;;;;;;5057303;28;20197;-65
2022/01/29 01:28:47;;;;;;;38.75;20.67;;;;;;;;;;5057063;28;20220;-65
2022/01/29 01:31:14;;;;;;;42.88;20.83;;;;;;;;;;5056944;28;20303;-68
2022/01/29 01:33:42;;;;;;;38.20;23.85;;;;;;;;;;5056978;28;20291;-65
2022/01/29 01:36:09;;;;;;;32.28;20.52;;;;;;;;;;5057421;28;20244;-67
2022/01/29 01:38:42;;;;;;;28.88;16.95;;;;;;;;;;5056492;28;20212;-67
2022/01/29 01:41:13;;;;;;;34.72;20.15;;;;;;;;;;5057129;28;20609;-65
2022/01/29 01:43:41;;;;;;;36.72;21.73;;;;;;;;;;5056717;28;20190;-65
2022/01/29 01:46:09;;;;;;;45.13;21.58;;;;;;;;;;5056486;28;20292;-66
2022/01/29 01:48:37;;;;;;;35.35;21.38;;;;;;;;;;5056677;28;20289;-66
2022/01/29 01:51:04;;;;;;;38.45;21.40;;;;;;;;;;5056236;28;20200;-67
2022/01/29 01:53:31;;;;;;;42.17;23.67;;;;;;;;;;5056235;28;20296;-65
2022/01/29 01:55:58;;;;;;;32.65;15.45;;;;;;;;;;5056807;28;20267;-67
2022/01/29 01:58:26;;;;;;;40.17;23.73;;;;;;;;;;5056040;28;20233;-66
2022/01/29 02:00:53;;;;;;;39.53;23.25;;;;;;;;;;5056802;28;20666;-66
2022/01/29 02:03:22;;;;;;;44.85;23.10;;;;;;;;;;5056055;28;20235;-66
2022/01/29 02:05:49;;;;;;;28.10;17.73;;;;;;;;;;5055995;28;20205;-66
2022/01/29 02:08:17;;;;;;;39.45;21.98;;;;;;;;;;5055810;28;20205;-66
2022/01/29 02:10:45;;;;;;;35.28;19.67;;;;;;;;;;5056439;28;20205;-66
2022/01/29 02:13:13;;;;;;;38.22;22.30;;;;;;;;;;5055861;28;20209;-66
2022/01/29 02:15:40;;;;;;;39.38;19.90;;;;;;;;;;5056352;28;20271;-66
2022/01/29 02:18:12;;;;;;;38.30;22.05;;;;;;;;;;5055650;28;20728;-66
2022/01/29 02:20:41;;;;;;;41.63;24.55;;;;;;;;;;5056348;28;20239;-66
2022/01/29 02:23:10;;;;;;;45.85;22.23;;;;;;;;;;5056224;28;20197;-66
2022/01/29 02:25:38;;;;;;;30.42;16.48;;;;;;;;;;5055837;28;20577;-66
2022/01/29 02:28:07;;;;;;;45.88;22.00;;;;;;;;;;5056243;28;20197;-66
2022/01/29 02:30:35;;;;;;;38.92;23.02;;;;;;;;;;5055791;28;20201;-66
2022/01/29 02:33:05;;;;;;;38.55;20.05;;;;;;;;;;5055710;28;20195;-66
2022/01/29 02:35:33;;;;;;;37.50;24.05;;;;;;;;;;5055518;28;20184;-65
2022/01/29 02:38:00;;;;;;;43.50;20.40;;;;;;;;;;5055628;28;20202;-66
2022/01/29 02:40:34;;;;;;;44.00;19.90;;;;;;;;;;5055308;28;20307;-66
2022/01/29 02:43:10;;;;;;;36.78;21.05;;;;;;;;;;5056065;28;20689;-66
2022/01/29 02:45:37;;;;;;;40.53;24.27;;;;;;;;;;5055627;28;20184;-65
2022/01/29 02:48:05;;;;;;;50.63;24.27;;;;;;;;;;5055547;28;20205;-67
2022/01/29 02:50:32;;;;;;;47.28;24.10;;;;;;;;;;5055413;28;20259;-65
2022/01/29 02:52:59;;;;;;;42.00;21.38;;;;;;;;;;5055108;28;20194;-66
2022/01/29 02:55:28;;;;;;;44.90;25.15;;;;;;;;;;5055131;28;20311;-66
2022/01/29 02:57:57;;;;;;;34.05;20.00;;;;;;;;;;5055362;28;20231;-66
2022/01/29 03:00:24;;;;;;;44.65;21.38;;;;;;;;;;5055527;28;20230;-66
2022/01/29 03:02:52;;;;;;;30.30;18.10;;;;;;;;;;5055202;28;20251;-66
2022/01/29 03:05:19;;;;;;;41.13;23.42;;;;;;;;;;5054895;28;20288;-66
2022/01/29 03:07:46;;;;;;;36.88;21.98;;;;;;;;;;5054883;28;20210;-66
2022/01/29 03:10:14;;;;;;;40.95;21.83;;;;;;;;;;5055107;28;20196;-66
2022/01/29 03:12:41;;;;;;;39.50;22.02;;;;;;;;;;5055631;28;20192;-66
2022/01/29 03:15:10;;;;;;;30.02;19.77;;;;;;;;;;5054681;28;20728;-67
2022/01/29 03:17:38;;;;;;;46.03;24.13;;;;;;;;;;5054540;28;20237;-67
2022/01/29 03:20:05;;;;;;;35.35;21.50;;;;;;;;;;5054036;28;20237;-66
2022/01/29 03:22:33;;;;;;;38.97;19.45;;;;;;;;;;5054856;28;20366;-66
2022/01/29 03:25:00;;;;;;;40.22;20.40;;;;;;;;;;5054842;28;20669;-66
2022/01/29 03:27:27;;;;;;;35.90;21.50;;;;;;;;;;5054746;28;20203;-66
2022/01/29 03:29:54;;;;;;;41.97;22.73;;;;;;;;;;5054471;28;20297;-66
2022/01/29 03:32:23;;;;;;;41.60;21.45;;;;;;;;;;5054732;28;20258;-65
2022/01/29 03:34:50;;;;;;;32.83;20.92;;;;;;;;;;5054336;28;20231;-65
2022/01/29 03:37:17;;;;;;;34.33;18.33;;;;;;;;;;5054823;28;20203;-65
2022/01/29 03:39:46;;;;;;;40.03;20.45;;;;;;;;;;5054222;28;20670;-66
2022/01/29 03:42:14;;;;;;;42.75;21.50;;;;;;;;;;5054514;28;20307;-66
2022/01/29 03:44:42;;;;;;;28.75;16.02;;;;;;;;;;5054623;28;20255;-67
2022/01/29 03:47:09;;;;;;;37.60;22.17;;;;;;;;;;5054018;28;20250;-66
2022/01/29 03:49:38;;;;;;;38.05;23.13;;;;;;;;;;5054644;28;20206;-66
2022/01/29 03:52:05;;;;;;;43.88;20.88;;;;;;;;;;5054292;28;20201;-67
2022/01/29 03:54:32;;;;;;;41.38;21.52;;;;;;;;;;5054444;28;20290;-66
2022/01/29 03:57:00;;;;;;;40.70;22.52;;;;;;;;;;5054428;28;20539;-66
2022/01/29 03:59:27;;;;;;;30.98;16.05;;;;;;;;;;5054144;28;20197;-66
2022/01/29 04:01:54;;;;;;;35.08;21.42;;;;;;;;;;5054071;28;20222;-66
2022/01/29 04:04:21;;;;;;;40.05;22.83;;;;;;;;;;5054041;28;20527;-66
2022/01/29 04:06:51;;;;;;;42.50;22.08;;;;;;;;;;5054331;28;20211;-66
2022/01/29 04:09:19;;;;;;;36.65;22.85;;;;;;;;;;5053726;28;20211;-66
2022/01/29 04:11:46;;;;;;;28.88;16.60;;;;;;;;;;5053890;28;20225;-66
2022/01/29 04:14:17;;;;;;;36.85;21.75;;;;;;;;;;5054464;28;20712;-66
2022/01/29 04:16:44;;;;;;;28.85;17.90;;;;;;;;;;5054070;28;20200;-66
2022/01/29 04:19:12;;;;;;;41.67;23.30;;;;;;;;;;5054081;28;20236;-66
2022/01/29 04:21:41;;;;;;;36.88;21.80;;;;;;;;;;5054260;28;20220;-66
2022/01/29 04:24:09;;;;;;;34.05;19.50;;;;;;;;;;5053404;28;20242;-66
2022/01/29 04:26:37;;;;;;;40.40;22.05;;;;;;;;;;5054249;28;20333;-65
2022/01/29 04:29:07;;;;;;;36.97;20.95;;;;;;;;;;5054532;28;20200;-66
2022/01/29 04:31:41;;;;;;;32.55;18.23;;;;;;;;;;5053782;28;20238;-66
2022/01/29 04:34:08;;;;;;;39.00;20.77;;;;;;;;;;5053675;28;20585;-65
2022/01/29 04:36:36;;;;;;;27.25;17.45;;;;;;;;;;5053211;28;20288;-65
2022/01/29 04:39:03;;;;;;;37.92;21.83;;;;;;;;;;5053271;28;20722;-65
2022/01/29 04:41:32;;;;;;;40.03;22.00;;;;;;;;;;5053219;28;20224;-66
2022/01/29 04:43:59;;;;;;;24.75;17.02;;;;;;;;;;5053153;28;20231;-65
2022/01/29 04:46:26;;;;;;;31.60;19.23;;;;;;;;;;5053498;28;20563;-65
2022/01/29 04:48:54;;;;;;;28.27;17.23;;;;;;;;;;5053656;28;20210;-64
2022/01/29 04:51:21;;;;;;;23.90;15.65;;;;;;;;;;5053108;28;20653;-64
2022/01/29 04:53:48;;;;;;;34.05;18.50;;;;;;;;;;5053390;28;20369;-65
2022/01/29 04:56:15;;;;;;;41.88;19.85;;;;;;;;;;5054240;28;20315;-64
2022/01/29 04:58:44;;;;;;;34.97;20.38;;;;;;;;;;5053075;28;20200;-64
2022/01/29 05:01:11;;;;;;;31.58;17.70;;;;;;;;;;5053247;28;20220;-65
2022/01/29 05:03:39;;;;;;;27.98;19.48;;;;;;;;;;5053613;28;20543;-64
2022/01/29 05:06:09;;;;;;;14.57;9.32;;;;;;;;;;5053036;28;20229;-65
2022/01/29 05:08:37;;;;;;;23.38;15.68;;;;;;;;;;5053540;28;20187;-64
2022/01/29 05:11:05;;;;;;;30.08;19.55;;;;;;;;;;5053285;28;20658;-65
2022/01/29 05:13:34;;;;;;;33.25;21.95;;;;;;;;;;5053042;28;20288;-65
2022/01/29 05:16:27;;;;;;;30.95;18.02;;;;;;;;;;5053434;28;20204;-65
2022/01/29 05:27:17;;;;;;;26.10;16.13;;;;;;;;;;5017204;28;20694;-65
2022/01/29 05:29:44;;;;;;;26.80;17.20;;;;;;;;;;5052832;28;20297;-65
2022/01/29 05:32:12;;;;;;;27.48;16.58;;;;;;;;;;5052754;28;20738;-64
2022/01/29 05:34:41;;;;;;;29.90;19.65;;;;;;;;;;5053276;28;20623;-65
2022/01/29 05:37:08;;;;;;;27.63;18.25;;;;;;;;;;5053003;28;20204;-64
2022/01/29 05:39:37;;;;;;;26.92;17.02;;;;;;;;;;5053019;28;20204;-66
2022/01/29 05:42:04;;;;;;;33.30;18.02;;;;;;;;;;5052917;28;20228;-64
2022/01/29 05:44:31;;;;;;;27.25;16.67;;;;;;;;;;5055227;28;20284;-65
2022/01/29 05:46:59;;;;;;;35.33;18.70;;;;;;;;;;5057306;28;20296;-65
2022/01/29 05:49:27;;;;;;;28.52;17.27;;;;;;;;;;5056676;28;20200;-64
2022/01/29 05:51:54;;;;;;;28.95;17.55;;;;;;;;;;5055740;28;20211;-64
2022/01/29 05:54:21;;;;;;;26.63;15.80;;;;;;;;;;5055691;28;20626;-64
2022/01/29 05:56:49;;;;;;;30.00;16.17;;;;;;;;;;5056026;28;20199;-64
2022/01/29 05:59:16;;;;;;;31.63;17.70;;;;;;;;;;5055526;28;20297;-64
2022/01/29 06:01:43;;;;;;;30.20;17.42;;;;;;;;;;5055919;28;20214;-64
2022/01/29 06:04:10;;;;;;;38.42;20.40;;;;;;;;;;5055550;28;20680;-64
2022/01/29 06:06:39;;;;;;;31.45;17.60;;;;;;;;;;5056004;28;20291;-64
2022/01/29 06:09:06;;;;;;;40.55;21.63;;;;;;;;;;5055680;28;20205;-65
2022/01/29 06:11:34;;;;;;;36.90;21.88;;;;;;;;;;5055517;28;20287;-64
2022/01/29 06:14:01;;;;;;;30.55;17.55;;;;;;;;;;5055772;28;20650;-64
2022/01/29 06:16:29;;;;;;;28.00;17.13;;;;;;;;;;5056655;28;20292;-64
2022/01/29 06:18:56;;;;;;;47.25;24.65;;;;;;;;;;5056083;28;20227;-64
2022/01/29 06:21:24;;;;;;;40.45;22.02;;;;;;;;;;5055607;28;20264;-65
2022/01/29 06:23:52;;;;;;;53.22;23.40;;;;;;;;;;5056008;28;20591;-64
2022/01/29 06:26:20;;;;;;;41.13;21.05;;;;;;;;;;5055635;28;20253;-65
2022/01/29 06:28:47;;;;;;;51.55;24.52;;;;;;;;;;5055410;28;20256;-64
2022/01/29 06:31:14;;;;;;;49.90;23.45;;;;;;;;;;5055453;28;20819;-65
2022/01/29 06:33:42;;;;;;;53.25;24.38;;;;;;;;;;5055759;28;20198;-64
2022/01/29 06:36:10;;;;;;;47.97;22.77;;;;;;;;;;5055442;28;20196;-64
2022/01/29 06:38:37;;;;;;;47.58;21.75;;;;;;;;;;5055786;28;20206;-65
2022/01/29 06:41:05;;;;;;;47.22;23.92;;;;;;;;;;5055591;28;20284;-65
2022/01/29 06:43:33;;;;;;;60.08;26.85;;;;;;;;;;5055646;28;20204;-64
2022/01/29 06:46:00;;;;;;;53.42;25.15;;;;;;;;;;5055223;28;20235;-65
2022/01/29 06:48:27;;;;;;;53.53;27.42;;;;;;;;;;5056268;28;20222;-65
2022/01/29 06:50:55;;;;;;;31.10;17.30;;;;;;;;;;5054749;28;20236;-64
2022/01/29 06:53:22;;;;;;;44.13;22.85;;;;;;;;;;5054396;28;20237;-66
2022/01/29 06:55:49;;;;;;;53.22;23.35;;;;;;;;;;5054455;28;20230;-66
2022/01/29 06:58:18;;;;;;;44.13;21.13;;;;;;;;;;5055151;28;20218;-65
2022/01/29 07:00:45;;;;;;;53.85;25.30;;;;;;;;;;5055416;28;20264;-65
2022/01/29 07:03:12;;;;;;;51.70;23.52;;;;;;;;;;5054507;28;20367;-64
2022/01/29 07:05:40;;;;;;;45.85;25.10;;;;;;;;;;5054496;28;20237;-65
2022/01/29 07:08:07;;;;;;;44.33;22.33;;;;;;;;;;5055044;28;20208;-65
2022/01/29 07:10:37;;;;;;;34.10;16.13;;;;;;;;;;5054710;28;20531;-65
2022/01/29 07:13:04;;;;;;;36.40;16.98;;;;;;;;;;5054873;28;20202;-64
2022/01/29 07:15:32;;;;;;;49.15;22.65;;;;;;;;;;5054979;28;20197;-65
2022/01/29 07:18:00;;;;;;;59.33;26.48;;;;;;;;;;5054759;28;20230;-65
2022/01/29 07:20:27;;;;;;;44.15;22.38;;;;;;;;;;5054340;28;20195;-65
2022/01/29 07:22:54;;;;;;;43.35;22.17;;;;;;;;;;5053465;28;20225;-65
2022/01/29 07:25:21;;;;;;;60.42;27.13;;;;;;;;;;5054325;28;20198;-65
2022/01/29 07:27:49;;;;;;;51.92;25.15;;;;;;;;;;5055366;28;20227;-66
2022/01/29 07:30:16;;;;;;;50.33;23.85;;;;;;;;;;5054111;28;20285;-66
2022/01/29 07:32:45;;;;;;;49.13;27.05;;;;;;;;;;5054745;28;20292;-65
2022/01/29 07:35:12;;;;;;;57.20;24.65;;;;;;;;;;5054908;28;20210;-66
2022/01/29 07:37:39;;;;;;;53.85;26.35;;;;;;;;;;5055080;28;20314;-66
2022/01/29 07:40:07;;;;;;;61.38;28.67;;;;;;;;;;5055031;28;20232;-65
2022/01/29 07:42:34;;;;;;;52.08;24.17;;;;;;;;;;5054785;28;20307;-65
2022/01/29 07:45:01;;;;;;;57.10;26.42;;;;;;;;;;5054554;28;20236;-65
2022/01/29 07:47:29;;;;;;;51.50;27.20;;;;;;;;;;5054089;28;20194;-65
2022/01/29 07:49:57;;;;;;;60.25;27.90;;;;;;;;;;5053921;28;20202;-65
2022/01/29 07:52:25;;;;;;;41.17;19.83;;;;;;;;;;5054771;28;20198;-65
2022/01/29 07:54:52;;;;;;;59.97;26.70;;;;;;;;;;5053957;28;20252;-66
2022/01/29 07:57:19;;;;;;;48.80;27.63;;;;;;;;;;5054417;28;20207;-65
2022/01/29 07:59:46;;;;;;;38.83;21.58;;;;;;;;;;5054102;28;20203;-65
2022/01/29 08:02:13;;;;;;;65.55;28.85;;;;;;;;;;5054260;28;20311;-65
2022/01/29 08:04:41;;;;;;;68.57;28.27;;;;;;;;;;5053672;28;20229;-65
2022/01/29 08:07:09;;;;;;;62.22;28.27;;;;;;;;;;5053482;28;20285;-66
2022/01/29 08:09:37;;;;;;;63.08;32.22;;;;;;;;;;5053708;28;20655;-65
2022/01/29 08:12:04;;;;;;;62.65;28.85;;;;;;;;;;5053924;28;20240;-65
2022/01/29 08:14:31;;;;;;;50.80;22.83;;;;;;;;;;5053861;28;20197;-65
2022/01/29 08:16:58;;;;;;;57.75;26.35;;;;;;;;;;5053967;28;20198;-64
2022/01/29 08:19:26;;;;;;;61.50;29.45;;;;;;;;;;5054250;28;20201;-65
2022/01/29 08:21:53;;;;;;;63.05;30.77;;;;;;;;;;5053613;28;20631;-65
2022/01/29 08:24:22;;;;;;;49.97;26.50;;;;;;;;;;5053553;28;20198;-66
2022/01/29 08:26:49;;;;;;;66.43;28.80;;;;;;;;;;5053435;28;20211;-65
2022/01/29 08:29:16;;;;;;;40.00;22.20;;;;;;;;;;5054163;28;20295;-65
2022/01/29 08:31:43;;;;;;;54.05;29.67;;;;;;;;;;5053733;28;20248;-65
2022/01/29 08:34:11;;;;;;;50.97;25.85;;;;;;;;;;5053550;28;20194;-65
2022/01/29 08:36:38;;;;;;;67.05;31.63;;;;;;;;;;5053043;28;20195;-65
2022/01/29 08:39:05;;;;;;;57.35;25.70;;;;;;;;;;5053603;28;20201;-66
2022/01/29 08:41:34;;;;;;;56.20;26.13;;;;;;;;;;5053757;28;20201;-65
2022/01/29 08:44:01;;;;;;;59.30;29.55;;;;;;;;;;5053446;28;20228;-64
2022/01/29 08:46:28;;;;;;;44.97;23.00;;;;;;;;;;5053477;28;20223;-63
2022/01/29 08:48:56;;;;;;;51.47;26.15;;;;;;;;;;5053182;28;20206;-64
2022/01/29 08:51:23;;;;;;;51.20;22.90;;;;;;;;;;5053127;28;20202;-65
2022/01/29 08:53:50;;;;;;;40.72;21.73;;;;;;;;;;5053179;28;20237;-65
2022/01/29 08:56:17;;;;;;;47.47;25.10;;;;;;;;;;5052853;28;20233;-66
2022/01/29 08:58:46;;;;;;;43.60;25.90;;;;;;;;;;5053201;28;20198;-64
2022/01/29 09:01:13;;;;;;;46.17;23.15;;;;;;;;;;5053345;28;20289;-65
2022/01/29 09:03:41;;;;;;;40.80;23.38;;;;;;;;;;5053374;28;20224;-64
2022/01/29 09:06:08;;;;;;;40.35;23.02;;;;;;;;;;5052851;28;20230;-65
2022/01/29 09:08:35;;;;;;;44.53;22.20;;;;;;;;;;5052992;28;20248;-64
2022/01/29 09:11:03;;;;;;;44.85;23.38;;;;;;;;;;5052960;28;20257;-65
2022/01/29 09:13:30;;;;;;;41.70;23.10;;;;;;;;;;5052951;28;20702;-66
2022/01/29 09:15:59;;;;;;;36.63;20.20;;;;;;;;;;5053002;28;20347;-65
2022/01/29 09:18:27;;;;;;;38.00;17.63;;;;;;;;;;5053900;28;20202;-65
2022/01/29 09:20:54;;;;;;;31.13;18.13;;;;;;;;;;5057476;28;20203;-65
2022/01/29 09:23:21;;;;;;;31.65;19.42;;;;;;;;;;5056693;28;20261;-66
2022/01/29 09:25:52;;;;;;;33.97;18.90;;;;;;;;;;5057075;28;20240;-65
2022/01/29 09:28:20;;;;;;;38.63;21.23;;;;;;;;;;5057444;28;20289;-65
2022/01/29 09:30:48;;;;;;;31.80;17.88;;;;;;;;;;5057179;28;20201;-65
2022/01/29 09:33:19;;;;;;;31.75;17.88;;;;;;;;;;5056953;28;20562;-65
2022/01/29 09:35:47;;;;;;;29.73;17.13;;;;;;;;;;5056706;28;20186;-65
2022/01/29 09:38:16;;;;;;;27.42;17.45;;;;;;;;;;5056807;28;20202;-68
2022/01/29 09:40:48;;;;;;;25.40;16.05;;;;;;;;;;5056860;28;20288;-64
2022/01/29 09:43:15;;;;;;;35.60;16.05;;;;;;;;;;5057380;28;20237;-64
2022/01/29 09:45:43;;;;;;;21.60;13.35;;;;;;;;;;5056838;28;20584;-65
2022/01/29 09:48:13;;;;;;;30.98;17.70;;;;;;;;;;5056353;28;20567;-64
2022/01/29 09:50:48;;;;;;;25.25;16.00;;;;;;;;;;5056393;28;20205;-65
2022/01/29 09:53:15;;;;;;;22.30;13.53;;;;;;;;;;5057024;28;20189;-65
2022/01/29 09:55:43;;;;;;;22.67;13.85;;;;;;;;;;5056932;28;20478;-69
2022/01/29 09:58:11;;;;;;;26.33;14.55;;;;;;;;;;5056490;28;20205;-66
2022/01/29 10:00:38;;;;;;;25.05;15.57;;;;;;;;;;5057037;28;20225;-66
2022/01/29 10:03:16;;;;;;;25.60;17.25;;;;;;;;;;5056371;28;20225;-67
2022/01/29 10:05:45;;;;;;;20.80;14.63;;;;;;;;;;5055860;28;20243;-66
2022/01/29 10:08:13;;;;;;;19.88;12.38;;;;;;;;;;5055651;28;20197;-66
2022/01/29 10:10:41;;;;;;;30.90;19.02;;;;;;;;;;5055546;28;20587;-66
2022/01/29 10:13:27;;;;;;;19.67;12.50;;;;;;;;;;5055803;28;20202;-66
2022/01/29 10:16:04;;;;;;;26.10;15.40;;;;;;;;;;5055708;28;20205;-66
2022/01/29 10:18:32;;;;;;;29.20;17.35;;;;;;;;;;5055747;28;20209;-68
2022/01/29 10:21:09;;;;;;;23.70;14.57;;;;;;;;;;5055381;28;20223;-66
2022/01/29 10:23:41;;;;;;;25.35;17.67;;;;;;;;;;5055349;28;20572;-66
2022/01/29 10:26:11;;;;;;;27.42;17.35;;;;;;;;;;5065330;28;20186;-67
2022/01/29 10:28:39;;;;;;;28.55;16.58;;;;;;;;;;5075723;28;20220;-66
2022/01/29 10:31:08;;;;;;;23.13;16.17;;;;;;;;;;5074606;28;20301;-67
2022/01/29 10:33:36;;;;;;;25.70;15.73;;;;;;;;;;5075448;28;20244;-67
2022/01/29 10:36:05;;;;;;;25.00;15.87;;;;;;;;;;5061443;28;20646;-67
2022/01/29 10:38:48;;;;;;;22.60;14.00;;;;;;;;;;5055428;28;20473;-66
2022/01/29 10:41:21;;;;;;;22.55;15.48;;;;;;;;;;5055825;28;20598;-67
2022/01/29 10:43:57;;;;;;;23.55;15.95;;;;;;;;;;5054994;28;20294;-66
2022/01/29 10:46:26;;;;;;;20.17;13.57;;;;;;;;;;5055698;28;20616;-66
2022/01/29 10:48:53;;;;;;;23.67;15.00;;;;;;;;;;5055280;28;20195;-66
2022/01/29 10:51:24;;;;;;;23.85;15.50;;;;;;;;;;5055814;28;20968;-67
2022/01/29 10:53:53;;;;;;;22.38;13.75;;;;;;;;;;5055617;28;20576;-66
2022/01/29 10:56:21;;;;;;;24.00;14.90;;;;;;;;;;5055583;28;20258;-66
2022/01/29 10:58:50;;;;;;;26.83;18.50;;;;;;;;;;5055262;28;20727;-66
2022/01/29 11:01:18;;;;;;;14.17;11.40;;;;;;;;;;5054908;28;20451;-67
2022/01/29 11:03:45;;;;;;;19.85;13.02;;;;;;;;;;5054280;28;20473;-66
2022/01/29 11:06:16;;;;;;;22.38;13.68;;;;;;;;;;5055060;28;20195;-66
2022/01/29 11:08:45;;;;;;;22.17;13.70;;;;;;;;;;5055279;28;20196;-67
2022/01/29 11:11:14;;;;;;;20.95;13.85;;;;;;;;;;5055093;28;20560;-66
2022/01/29 11:13:42;;;;;;;26.60;17.87;;;;;;;;;;5054513;28;20198;-66
2022/01/29 11:16:09;;;;;;;21.52;14.60;;;;;;;;;;5055342;28;20445;-67
2022/01/29 11:18:36;;;;;;;21.73;14.60;;;;;;;;;;5054606;28;20252;-67
2022/01/29 11:21:04;;;;;;;20.65;13.93;;;;;;;;;;5054335;28;20275;-68
2022/01/29 11:23:32;;;;;;;18.48;13.38;;;;;;;;;;5053975;28;20250;-66
2022/01/29 11:26:00;;;;;;;23.40;15.65;;;;;;;;;;5054664;28;20227;-67
2022/01/29 11:28:29;;;;;;;24.70;14.10;;;;;;;;;;5054542;28;20667;-67
2022/01/29 11:31:25;;;;;;;23.50;16.40;;;;;;;;;;5054446;28;20202;-67
2022/01/29 11:34:13;;;;;;;19.13;14.27;;;;;;;;;;5037688;28;20205;-67
2022/01/29 11:36:59;;;;;;;25.33;16.73;;;;;;;;;;5048695;28;20199;-67
2022/01/29 11:39:28;;;;;;;27.77;16.48;;;;;;;;;;5054214;28;20720;-67
2022/01/29 11:42:10;;;;;;;18.90;13.65;;;;;;;;;;5053837;28;20241;-67
2022/01/29 11:44:39;;;;;;;24.98;17.60;;;;;;;;;;5052998;28;20253;-67
2022/01/29 11:47:21;;;;;;;22.77;15.85;;;;;;;;;;5054644;28;20611;-67
2022/01/29 11:49:49;;;;;;;22.90;14.45;;;;;;;;;;5053535;28;20551;-68
2022/01/29 11:52:22;;;;;;;21.17;14.23;;;;;;;;;;5054451;28;20287;-68
2022/01/29 11:55:00;;;;;;;21.50;15.10;;;;;;;;;;5054579;28;20310;-68
2022/01/29 11:57:27;;;;;;;20.90;14.17;;;;;;;;;;5054664;28;20190;-68
2022/01/29 11:59:56;;;;;;;25.57;16.63;;;;;;;;;;5054071;28;20476;-69
2022/01/29 12:02:39;;;;;;;21.87;13.67;;;;;;;;;;5053485;28;20495;-69
2022/01/29 12:05:08;;;;;;;15.40;12.43;;;;;;;;;;5051585;28;20481;-68
2022/01/29 12:07:39;;;;;;;19.42;15.65;;;;;;;;;;5054708;28;20539;-68
2022/01/29 12:10:09;;;;;;;11.63;10.17;;;;;;;;;;5054197;28;20190;-69
2022/01/29 12:12:36;;;;;;;22.00;14.03;;;;;;;;;;5053696;28;20438;-68
2022/01/29 12:15:22;;;;;;;13.40;11.10;;;;;;;;;;5053264;28;20449;-68
2022/01/29 12:17:58;;;;;;;18.83;11.83;;;;;;;;;;5053294;28;20447;-68
2022/01/29 12:20:28;;;;;;;16.87;12.10;;;;;;;;;;5052994;28;20969;-68
2022/01/29 12:22:59;;;;;;;19.93;14.30;;;;;;;;;;5052986;28;20445;-68
2022/01/29 12:25:27;;;;;;;15.70;12.70;;;;;;;;;;5053234;28;20475;-68
2022/01/29 12:27:56;;;;;;;13.60;10.07;;;;;;;;;;5053515;28;20918;-69
2022/01/29 12:30:23;;;;;;;18.23;13.60;;;;;;;;;;5053296;28;20456;-68
2022/01/29 12:33:03;;;;;;;17.80;14.13;;;;;;;;;;5053304;28;20536;-69
2022/01/29 12:35:38;;;;;;;18.90;11.93;;;;;;;;;;5054030;28;20972;-69
2022/01/29 12:38:06;;;;;;;13.63;9.50;;;;;;;;;;5053502;28;20808;-68
2022/01/29 12:40:38;;;;;;;18.30;13.13;;;;;;;;;;5053541;28;20532;-69
2022/01/29 12:43:11;;;;;;;12.83;7.30;;;;;;;;;;5054028;28;20437;-68
2022/01/29 12:45:39;;;;;;;19.50;11.67;;;;;;;;;;5053216;28;20434;-68
2022/01/29 12:48:08;;;;;;;16.70;11.30;;;;;;;;;;5053792;28;20440;-69
2022/01/29 12:50:36;;;;;;;15.83;10.87;;;;;;;;;;5053417;28;20468;-68
2022/01/29 12:53:07;;;;;;;12.97;10.00;;;;;;;;;;5052298;28;20441;-67
2022/01/29 12:55:34;;;;;;;12.03;10.67;;;;;;;;;;5053567;28;20915;-68
2022/01/29 12:58:02;;;;;;;15.57;11.00;;;;;;;;;;5053329;28;20784;-68
2022/01/29 13:00:29;;;;;;;10.52;9.35;;;;;;;;;;5053225;28;20443;-69
2022/01/29 13:03:03;;;;;;;11.43;9.00;;;;;;;;;;5053210;28;20197;-68
2022/01/29 13:05:32;;;;;;;19.10;11.90;;;;;;;;;;5053387;28;20902;-68
2022/01/29 13:07:59;;;;;;;15.10;11.93;;;;;;;;;;5053333;28;20469;-68
2022/01/29 13:10:33;;;;;;;10.70;8.80;;;;;;;;;;5053240;28;20452;-68
2022/01/29 13:13:00;;;;;;;11.40;9.80;;;;;;;;;;5052935;28;20946;-68
2022/01/29 13:15:35;;;;;;;9.30;7.87;;;;;;;;;;5052809;28;20499;-68
2022/01/29 13:18:02;;;;;;;9.17;8.27;;;;;;;;;;5053319;28;20544;-68
2022/01/29 13:20:29;;;;;;;12.00;8.27;;;;;;;;;;5053138;28;20441;-68
2022/01/29 13:22:58;;;;;;;13.27;10.10;;;;;;;;;;5053388;28;20528;-67
2022/01/29 13:25:28;;;;;;;11.30;8.57;;;;;;;;;;5053089;28;20897;-68
2022/01/29 13:28:05;;;;;;;9.30;8.30;;;;;;;;;;5052816;28;20433;-69
2022/01/29 13:30:32;;;;;;;10.57;7.40;;;;;;;;;;5053920;28;20465;-68
2022/01/29 13:33:06;;;;;;;8.53;7.67;;;;;;;;;;5052338;28;20440;-67
2022/01/29 13:35:34;;;;;;;16.80;11.35;;;;;;;;;;5052433;28;20849;-67
2022/01/29 13:38:17;;;;;;;9.63;8.50;;;;;;;;;;5052530;28;20198;-69
2022/01/29 13:40:45;;;;;;;10.23;8.17;;;;;;;;;;5053013;28;20757;-68
2022/01/29 13:43:13;;;;;;;11.15;8.25;;;;;;;;;;5052683;28;20503;-69
2022/01/29 13:45:48;;;;;;;11.10;9.17;;;;;;;;;;5052482;28;20226;-68
2022/01/29 13:48:17;;;;;;;9.17;8.23;;;;;;;;;;5052547;28;20495;-69
2022/01/29 13:50:45;;;;;;;13.87;9.83;;;;;;;;;;5052485;28;20497;-69
2022/01/29 13:53:13;;;;;;;9.33;6.83;;;;;;;;;;5052135;28;20439;-68
2022/01/29 13:55:42;;;;;;;11.40;8.37;;;;;;;;;;5052262;28;20534;-68
2022/01/29 13:58:11;;;;;;;9.73;7.90;;;;;;;;;;5052466;28;20499;-69
2022/01/29 14:01:08;;;;;;;9.90;7.93;;;;;;;;;;5052323;28;20443;-69
2022/01/29 14:03:42;;;;;;;11.50;8.20;;;;;;;;;;4971576;28;20564;-69
2022/01/29 14:06:24;;;;;;;12.57;7.53;;;;;;;;;;5041075;28;20529;-68
2022/01/29 14:09:06;;;;;;;9.77;8.70;;;;;;;;;;5055997;28;20421;-68
2022/01/29 14:11:48;;;;;;;9.25;7.57;;;;;;;;;;5056409;28;20196;-69
2022/01/29 14:14:17;;;;;;;15.57;9.45;;;;;;;;;;5055096;28;20285;-67
2022/01/29 14:16:44;;;;;;;9.63;8.60;;;;;;;;;;5055225;28;20195;-69
2022/01/29 14:19:15;;;;;;;10.40;8.53;;;;;;;;;;5055656;28;20742;-68
2022/01/29 14:21:43;;;;;;;14.17;8.50;;;;;;;;;;5056275;28;20481;-68
2022/01/29 14:24:10;;;;;;;8.93;7.73;;;;;;;;;;5055944;28;20531;-68
2022/01/29 14:26:38;;;;;;;8.93;7.40;;;;;;;;;;5055681;28;20524;-68
2022/01/29 14:29:05;;;;;;;12.20;8.87;;;;;;;;;;5056004;28;20487;-67
2022/01/29 14:31:33;;;;;;;8.00;6.87;;;;;;;;;;5055666;28;20946;-68
2022/01/29 14:34:02;;;;;;;9.20;8.30;;;;;;;;;;5055146;28;20814;-68
2022/01/29 14:36:29;;;;;;;10.17;8.47;;;;;;;;;;5055270;28;20449;-69